sensor_id;sensor_type;location;lat;lon;timestamp;pressure;altitude;pressure_sealevel;temperature;humidity
51496;BME280;37572;52.094;4.870;2022-08-25T00:01:27;101718.59;;;23.16;99.25
51496;BME280;37572;52.094;4.870;2022-08-25T00:03:53;101716.09;;;23.14;99.14
51496;BME280;37572;52.094;4.870;2022-08-25T00:06:19;101711.69;;;23.08;99.26
51496;BME280;37572;52.094;4.870;2022-08-25T00:08:46;101712.50;;;23.04;99.72
51496;BME280;37572;52.094;4.870;2022-08-25T00:11:15;101713.56;;;23.03;100.00
51496;BME280;37572;52.094;4.870;2022-08-25T00:13:42;101708.34;;;23.01;100.00
51496;BME280;37572;52.094;4.870;2022-08-25T00:16:09;101710.84;;;22.97;99.44
51496;BME280;37572;52.094;4.870;2022-08-25T00:18:36;101708.06;;;22.92;99.97
51496;BME280;37572;52.094;4.870;2022-08-25T00:21:02;101703.94;;;22.90;99.98
51496;BME280;37572;52.094;4.870;2022-08-25T00:23:27;101704.22;;;22.88;99.83
51496;BME280;37572;52.094;4.870;2022-08-25T00:25:53;101711.63;;;22.83;100.00
51496;BME280;37572;52.094;4.870;2022-08-25T00:28:19;101703.91;;;22.79;100.00
51496;BME280;37572;52.094;4.870;2022-08-25T00:30:45;101703.59;;;22.71;99.93
51496;BME280;37572;52.094;4.870;2022-08-25T00:33:10;101701.69;;;22.66;100.00
51496;BME280;37572;52.094;4.870;2022-08-25T00:35:36;101707.16;;;22.61;100.00
51496;BME280;37572;52.094;4.870;2022-08-25T00:38:01;101707.97;;;22.56;100.00
51496;BME280;37572;52.094;4.870;2022-08-25T00:40:27;101701.94;;;22.54;100.00
51496;BME280;37572;52.094;4.870;2022-08-25T00:42:53;101696.72;;;22.53;100.00
51496;BME280;37572;52.094;4.870;2022-08-25T00:45:20;101687.91;;;22.51;100.00
51496;BME280;37572;52.094;4.870;2022-08-25T00:47:46;101688.16;;;22.49;100.00
51496;BME280;37572;52.094;4.870;2022-08-25T00:50:11;101693.94;;;22.48;100.00
51496;BME280;37572;52.094;4.870;2022-08-25T00:52:41;101690.38;;;22.42;100.00
51496;BME280;37572;52.094;4.870;2022-08-25T00:55:13;101687.84;;;22.35;100.00
51496;BME280;37572;52.094;4.870;2022-08-25T00:57:42;101688.88;;;22.29;100.00
51496;BME280;37572;52.094;4.870;2022-08-25T01:00:12;101683.94;;;22.26;100.00
51496;BME280;37572;52.094;4.870;2022-08-25T01:02:38;101682.25;;;22.15;100.00
51496;BME280;37572;52.094;4.870;2022-08-25T01:05:05;101687.69;;;22.09;100.00
51496;BME280;37572;52.094;4.870;2022-08-25T01:07:31;101683.56;;;22.07;100.00
51496;BME280;37572;52.094;4.870;2022-08-25T01:09:58;101680.25;;;22.00;100.00
51496;BME280;37572;52.094;4.870;2022-08-25T01:12:24;101675.47;;;21.85;100.00
51496;BME280;37572;52.094;4.870;2022-08-25T01:14:51;101672.69;;;21.75;100.00
51496;BME280;37572;52.094;4.870;2022-08-25T01:17:17;101670.44;;;21.66;100.00
51496;BME280;37572;52.094;4.870;2022-08-25T01:19:42;101679.19;;;21.63;100.00
51496;BME280;37572;52.094;4.870;2022-08-25T01:22:09;101668.44;;;21.57;100.00
51496;BME280;37572;52.094;4.870;2022-08-25T01:24:46;101664.84;;;21.51;100.00
51496;BME280;37572;52.094;4.870;2022-08-25T01:27:14;101667.47;;;21.41;100.00
51496;BME280;37572;52.094;4.870;2022-08-25T01:29:40;101666.09;;;21.38;100.00
51496;BME280;37572;52.094;4.870;2022-08-25T01:32:09;101672.38;;;21.38;100.00
51496;BME280;37572;52.094;4.870;2022-08-25T01:34:39;101672.94;;;21.41;100.00
51496;BME280;37572;52.094;4.870;2022-08-25T01:37:06;101672.16;;;21.45;100.00
51496;BME280;37572;52.094;4.870;2022-08-25T01:39:32;101675.22;;;21.49;100.00
51496;BME280;37572;52.094;4.870;2022-08-25T01:44:39;101670.31;;;21.51;100.00
51496;BME280;37572;52.094;4.870;2022-08-25T01:47:05;101665.97;;;21.55;100.00
51496;BME280;37572;52.094;4.870;2022-08-25T01:49:31;101669.00;;;21.59;100.00
51496;BME280;37572;52.094;4.870;2022-08-25T01:54:36;101661.91;;;21.63;100.00
51496;BME280;37572;52.094;4.870;2022-08-25T01:57:01;101656.44;;;21.63;100.00
51496;BME280;37572;52.094;4.870;2022-08-25T01:59:27;101660.25;;;21.62;100.00
51496;BME280;37572;52.094;4.870;2022-08-25T02:01:52;101657.25;;;21.63;100.00
51496;BME280;37572;52.094;4.870;2022-08-25T02:04:18;101658.59;;;21.61;100.00
51496;BME280;37572;52.094;4.870;2022-08-25T02:06:43;101655.00;;;21.55;100.00
51496;BME280;37572;52.094;4.870;2022-08-25T02:09:12;101658.03;;;21.53;100.00
51496;BME280;37572;52.094;4.870;2022-08-25T02:11:40;101660.13;;;21.46;100.00
51496;BME280;37572;52.094;4.870;2022-08-25T02:14:07;101662.03;;;21.46;100.00
51496;BME280;37572;52.094;4.870;2022-08-25T02:16:35;101651.59;;;21.43;100.00
51496;BME280;37572;52.094;4.870;2022-08-25T02:19:02;101653.75;;;21.41;100.00
51496;BME280;37572;52.094;4.870;2022-08-25T02:21:28;101651.00;;;21.35;100.00
51496;BME280;37572;52.094;4.870;2022-08-25T02:23:53;101656.19;;;21.32;100.00
51496;BME280;37572;52.094;4.870;2022-08-25T02:26:19;101652.31;;;21.28;100.00
51496;BME280;37572;52.094;4.870;2022-08-25T02:28:49;101652.53;;;21.21;100.00
51496;BME280;37572;52.094;4.870;2022-08-25T02:31:15;101646.19;;;21.15;100.00
51496;BME280;37572;52.094;4.870;2022-08-25T02:33:41;101650.22;;;21.08;100.00
51496;BME280;37572;52.094;4.870;2022-08-25T02:36:07;101647.13;;;20.99;100.00
51496;BME280;37572;52.094;4.870;2022-08-25T02:38:32;101638.88;;;20.94;100.00
51496;BME280;37572;52.094;4.870;2022-08-25T02:40:58;101643.72;;;20.87;100.00
51496;BME280;37572;52.094;4.870;2022-08-25T02:43:24;101646.16;;;20.83;100.00
51496;BME280;37572;52.094;4.870;2022-08-25T02:45:53;101633.00;;;20.80;100.00
51496;BME280;37572;52.094;4.870;2022-08-25T02:48:20;101632.16;;;20.79;100.00
51496;BME280;37572;52.094;4.870;2022-08-25T02:50:47;101631.84;;;20.76;100.00
51496;BME280;37572;52.094;4.870;2022-08-25T02:53:13;101632.63;;;20.71;100.00
51496;BME280;37572;52.094;4.870;2022-08-25T02:55:39;101620.00;;;20.70;100.00
51496;BME280;37572;52.094;4.870;2022-08-25T02:58:05;101626.31;;;20.71;100.00
51496;BME280;37572;52.094;4.870;2022-08-25T03:00:30;101622.19;;;20.68;100.00
51496;BME280;37572;52.094;4.870;2022-08-25T03:02:55;101618.91;;;20.66;100.00
51496;BME280;37572;52.094;4.870;2022-08-25T03:05:21;101613.91;;;20.63;100.00
51496;BME280;37572;52.094;4.870;2022-08-25T03:07:47;101610.56;;;20.61;100.00
51496;BME280;37572;52.094;4.870;2022-08-25T03:10:15;101605.88;;;20.56;100.00
51496;BME280;37572;52.094;4.870;2022-08-25T03:12:41;101610.22;;;20.52;100.00
51496;BME280;37572;52.094;4.870;2022-08-25T03:15:09;101605.28;;;20.49;100.00
51496;BME280;37572;52.094;4.870;2022-08-25T03:17:36;101594.84;;;20.46;100.00
51496;BME280;37572;52.094;4.870;2022-08-25T03:20:04;101599.72;;;20.44;100.00
51496;BME280;37572;52.094;4.870;2022-08-25T03:22:30;101598.59;;;20.40;100.00
51496;BME280;37572;52.094;4.870;2022-08-25T03:24:55;101596.38;;;20.37;100.00
51496;BME280;37572;52.094;4.870;2022-08-25T03:27:41;101590.91;;;20.37;100.00
51496;BME280;37572;52.094;4.870;2022-08-25T03:30:06;101588.75;;;20.39;100.00
51496;BME280;37572;52.094;4.870;2022-08-25T03:32:32;101587.41;;;20.41;100.00
51496;BME280;37572;52.094;4.870;2022-08-25T03:34:58;101584.16;;;20.44;100.00
51496;BME280;37572;52.094;4.870;2022-08-25T03:37:25;101579.56;;;20.50;100.00
51496;BME280;37572;52.094;4.870;2022-08-25T03:39:50;101574.72;;;20.57;98.84
51496;BME280;37572;52.094;4.870;2022-08-25T03:42:16;101582.22;;;20.67;97.13
51496;BME280;37572;52.094;4.870;2022-08-25T03:44:41;101588.59;;;20.78;95.00
51496;BME280;37572;52.094;4.870;2022-08-25T03:47:07;101588.72;;;20.88;94.07
51496;BME280;37572;52.094;4.870;2022-08-25T03:49:32;101585.19;;;20.93;92.63
51496;BME280;37572;52.094;4.870;2022-08-25T03:51:57;101580.59;;;20.98;90.88
51496;BME280;37572;52.094;4.870;2022-08-25T03:54:24;101573.81;;;21.06;90.19
51496;BME280;37572;52.094;4.870;2022-08-25T03:56:50;101564.25;;;21.09;88.74
51496;BME280;37572;52.094;4.870;2022-08-25T03:59:15;101562.09;;;21.16;86.71
51496;BME280;37572;52.094;4.870;2022-08-25T04:01:42;101562.44;;;21.25;86.47
51496;BME280;37572;52.094;4.870;2022-08-25T04:04:10;101564.66;;;21.28;85.62
51496;BME280;37572;52.094;4.870;2022-08-25T04:06:37;101562.47;;;21.30;84.77
51496;BME280;37572;52.094;4.870;2022-08-25T04:09:02;101565.25;;;21.35;83.26
51496;BME280;37572;52.094;4.870;2022-08-25T04:11:28;101549.66;;;21.41;83.25
51496;BME280;37572;52.094;4.870;2022-08-25T04:13:56;101558.44;;;21.43;82.06
51496;BME280;37572;52.094;4.870;2022-08-25T04:16:24;101562.00;;;21.43;81.24
51496;BME280;37572;52.094;4.870;2022-08-25T04:18:50;101554.06;;;21.47;80.43
51496;BME280;37572;52.094;4.870;2022-08-25T04:21:17;101557.06;;;21.45;80.26
51496;BME280;37572;52.094;4.870;2022-08-25T04:23:44;101552.44;;;21.46;79.71
51496;BME280;37572;52.094;4.870;2022-08-25T04:26:12;101551.03;;;21.43;79.17
51496;BME280;37572;52.094;4.870;2022-08-25T04:28:37;101555.78;;;21.53;78.78
51496;BME280;37572;52.094;4.870;2022-08-25T04:31:07;101559.38;;;21.53;78.88
51496;BME280;37572;52.094;4.870;2022-08-25T04:33:35;101551.16;;;21.53;78.41
51496;BME280;37572;52.094;4.870;2022-08-25T04:36:00;101547.28;;;21.49;78.17
51496;BME280;37572;52.094;4.870;2022-08-25T04:38:26;101546.13;;;21.45;78.28
51496;BME280;37572;52.094;4.870;2022-08-25T04:41:11;101539.88;;;21.50;78.61
51496;BME280;37572;52.094;4.870;2022-08-25T04:43:38;101548.59;;;21.47;78.18
51496;BME280;37572;52.094;4.870;2022-08-25T04:46:12;101541.75;;;21.44;78.23
51496;BME280;37572;52.094;4.870;2022-08-25T04:48:39;101546.38;;;21.44;77.65
51496;BME280;37572;52.094;4.870;2022-08-25T04:51:07;101545.03;;;21.41;77.16
51496;BME280;37572;52.094;4.870;2022-08-25T04:53:33;101549.97;;;21.44;77.47
51496;BME280;37572;52.094;4.870;2022-08-25T04:55:58;101549.13;;;21.44;77.40
51496;BME280;37572;52.094;4.870;2022-08-25T04:58:24;101545.22;;;21.34;77.29
51496;BME280;37572;52.094;4.870;2022-08-25T05:00:49;101540.88;;;21.33;76.65
51496;BME280;37572;52.094;4.870;2022-08-25T05:03:14;101544.41;;;21.34;76.75
51496;BME280;37572;52.094;4.870;2022-08-25T05:05:41;101548.84;;;21.40;76.66
51496;BME280;37572;52.094;4.870;2022-08-25T05:08:06;101543.28;;;21.30;76.23
51496;BME280;37572;52.094;4.870;2022-08-25T05:10:32;101553.44;;;21.34;76.19
51496;BME280;37572;52.094;4.870;2022-08-25T05:12:58;101555.91;;;21.36;75.77
51496;BME280;37572;52.094;4.870;2022-08-25T05:15:27;101555.66;;;21.37;75.79
51496;BME280;37572;52.094;4.870;2022-08-25T05:18:10;101547.41;;;21.27;75.12
51496;BME280;37572;52.094;4.870;2022-08-25T05:20:36;101551.56;;;21.40;75.01
51496;BME280;37572;52.094;4.870;2022-08-25T05:23:02;101556.25;;;21.45;75.04
51496;BME280;37572;52.094;4.870;2022-08-25T05:25:28;101561.19;;;21.43;74.54
51496;BME280;37572;52.094;4.870;2022-08-25T05:27:53;101558.72;;;21.41;73.92
51496;BME280;37572;52.094;4.870;2022-08-25T05:30:19;101564.19;;;21.41;73.42
51496;BME280;37572;52.094;4.870;2022-08-25T05:32:44;101567.84;;;21.52;73.55
51496;BME280;37572;52.094;4.870;2022-08-25T05:35:09;101561.00;;;21.54;74.36
51496;BME280;37572;52.094;4.870;2022-08-25T05:37:35;101574.09;;;21.47;73.27
51496;BME280;37572;52.094;4.870;2022-08-25T05:40:01;101566.19;;;21.51;72.76
51496;BME280;37572;52.094;4.870;2022-08-25T05:42:27;101575.03;;;21.63;72.58
51496;BME280;37572;52.094;4.870;2022-08-25T05:44:53;101573.44;;;21.72;72.12
51496;BME280;37572;52.094;4.870;2022-08-25T05:47:19;101572.09;;;21.75;71.70
51496;BME280;37572;52.094;4.870;2022-08-25T05:49:45;101571.75;;;21.66;70.61
51496;BME280;37572;52.094;4.870;2022-08-25T05:52:10;101569.66;;;21.84;71.06
51496;BME280;37572;52.094;4.870;2022-08-25T05:54:37;101570.38;;;21.64;70.98
51496;BME280;37572;52.094;4.870;2022-08-25T05:57:04;101575.63;;;21.76;71.42
51496;BME280;37572;52.094;4.870;2022-08-25T05:59:30;101575.69;;;21.81;70.08
51496;BME280;37572;52.094;4.870;2022-08-25T06:01:55;101583.09;;;21.85;70.36
51496;BME280;37572;52.094;4.870;2022-08-25T06:04:55;101583.91;;;21.86;69.32
51496;BME280;37572;52.094;4.870;2022-08-25T06:07:23;101574.03;;;21.85;68.45
51496;BME280;37572;52.094;4.870;2022-08-25T06:09:48;101582.38;;;22.05;67.33
51496;BME280;37572;52.094;4.870;2022-08-25T06:12:15;101576.94;;;22.21;67.19
51496;BME280;37572;52.094;4.870;2022-08-25T06:14:40;101573.41;;;22.36;66.82
51496;BME280;37572;52.094;4.870;2022-08-25T06:17:06;101573.66;;;22.29;67.08
51496;BME280;37572;52.094;4.870;2022-08-25T06:19:32;101576.50;;;22.50;66.52
51496;BME280;37572;52.094;4.870;2022-08-25T06:21:57;101581.72;;;22.67;66.05
51496;BME280;37572;52.094;4.870;2022-08-25T06:24:24;101580.34;;;22.85;65.85
51496;BME280;37572;52.094;4.870;2022-08-25T06:26:51;101564.72;;;22.90;64.33
51496;BME280;37572;52.094;4.870;2022-08-25T06:29:16;101564.72;;;23.01;64.47
51496;BME280;37572;52.094;4.870;2022-08-25T06:31:42;101566.06;;;23.39;63.72
51496;BME280;37572;52.094;4.870;2022-08-25T06:34:08;101569.78;;;23.90;62.16
51496;BME280;37572;52.094;4.870;2022-08-25T06:36:33;101561.34;;;24.26;60.21
51496;BME280;37572;52.094;4.870;2022-08-25T06:38:59;101568.88;;;24.94;58.62
51496;BME280;37572;52.094;4.870;2022-08-25T06:41:24;101564.44;;;25.81;54.47
51496;BME280;37572;52.094;4.870;2022-08-25T06:43:50;101571.06;;;26.23;54.85
51496;BME280;37572;52.094;4.870;2022-08-25T06:46:19;101570.03;;;26.76;53.12
51496;BME280;37572;52.094;4.870;2022-08-25T06:48:45;101570.47;;;27.30;51.05
51496;BME280;37572;52.094;4.870;2022-08-25T06:51:13;101576.09;;;27.72;49.35
51496;BME280;37572;52.094;4.870;2022-08-25T06:53:39;101578.84;;;27.72;48.85
51496;BME280;37572;52.094;4.870;2022-08-25T06:56:05;101574.25;;;27.67;48.52
51496;BME280;37572;52.094;4.870;2022-08-25T06:58:31;101570.44;;;27.77;47.02
51496;BME280;37572;52.094;4.870;2022-08-25T07:01:08;101576.75;;;28.19;48.41
51496;BME280;37572;52.094;4.870;2022-08-25T07:03:34;101576.47;;;27.79;46.85
51496;BME280;37572;52.094;4.870;2022-08-25T07:05:59;101571.59;;;28.26;47.23
51496;BME280;37572;52.094;4.870;2022-08-25T07:08:25;101583.59;;;28.36;46.16
51496;BME280;37572;52.094;4.870;2022-08-25T07:10:50;101574.41;;;28.86;43.84
51496;BME280;37572;52.094;4.870;2022-08-25T07:13:16;101573.81;;;29.20;42.78
51496;BME280;37572;52.094;4.870;2022-08-25T07:15:41;101579.28;;;29.43;44.08
51496;BME280;37572;52.094;4.870;2022-08-25T07:18:08;101581.97;;;29.57;42.34
51496;BME280;37572;52.094;4.870;2022-08-25T07:20:36;101572.97;;;30.00;42.19
51496;BME280;37572;52.094;4.870;2022-08-25T07:23:02;101569.34;;;29.91;41.16
51496;BME280;37572;52.094;4.870;2022-08-25T07:25:27;101574.50;;;30.41;40.71
51496;BME280;37572;52.094;4.870;2022-08-25T07:27:53;101576.63;;;30.53;39.36
51496;BME280;37572;52.094;4.870;2022-08-25T07:30:19;101574.78;;;30.13;40.40
51496;BME280;37572;52.094;4.870;2022-08-25T07:32:45;101575.97;;;30.47;39.72
51496;BME280;37572;52.094;4.870;2022-08-25T07:35:10;101572.38;;;30.73;39.08
51496;BME280;37572;52.094;4.870;2022-08-25T07:37:49;101567.56;;;31.08;38.71
51496;BME280;37572;52.094;4.870;2022-08-25T07:40:18;101564.69;;;30.70;37.78
51496;BME280;37572;52.094;4.870;2022-08-25T07:42:45;101569.09;;;30.62;39.50
51496;BME280;37572;52.094;4.870;2022-08-25T07:45:11;101566.75;;;30.03;40.62
51496;BME280;37572;52.094;4.870;2022-08-25T07:47:38;101557.63;;;29.53;40.60
51496;BME280;37572;52.094;4.870;2022-08-25T07:50:06;101557.16;;;29.20;41.20
51496;BME280;37572;52.094;4.870;2022-08-25T07:52:32;101551.59;;;28.89;41.43
51496;BME280;37572;52.094;4.870;2022-08-25T07:54:57;101555.56;;;28.74;41.75
51496;BME280;37572;52.094;4.870;2022-08-25T07:57:22;101553.34;;;28.62;43.66
51496;BME280;37572;52.094;4.870;2022-08-25T07:59:50;101567.34;;;28.79;43.36
51496;BME280;37572;52.094;4.870;2022-08-25T08:02:16;101560.78;;;28.75;45.10
51496;BME280;37572;52.094;4.870;2022-08-25T08:04:41;101571.72;;;28.58;43.68
51496;BME280;37572;52.094;4.870;2022-08-25T08:07:09;101568.53;;;28.64;44.65
51496;BME280;37572;52.094;4.870;2022-08-25T08:09:35;101567.34;;;28.79;43.98
51496;BME280;37572;52.094;4.870;2022-08-25T08:12:02;101567.25;;;29.16;45.28
51496;BME280;37572;52.094;4.870;2022-08-25T08:14:28;101565.22;;;29.30;45.54
51496;BME280;37572;52.094;4.870;2022-08-25T08:16:53;101561.19;;;29.45;42.25
51496;BME280;37572;52.094;4.870;2022-08-25T08:19:20;101561.44;;;29.75;45.23
51496;BME280;37572;52.094;4.870;2022-08-25T08:21:46;101563.53;;;29.61;41.24
51496;BME280;37572;52.094;4.870;2022-08-25T08:24:12;101558.13;;;29.56;44.31
51496;BME280;37572;52.094;4.870;2022-08-25T08:26:38;101566.59;;;29.50;43.54
51496;BME280;37572;52.094;4.870;2022-08-25T08:29:03;101564.81;;;29.55;44.28
51496;BME280;37572;52.094;4.870;2022-08-25T08:31:29;101549.38;;;28.99;41.91
51496;BME280;37572;52.094;4.870;2022-08-25T08:33:55;101568.31;;;29.06;42.54
51496;BME280;37572;52.094;4.870;2022-08-25T08:36:22;101550.13;;;28.91;43.70
51496;BME280;37572;52.094;4.870;2022-08-25T08:38:48;101550.19;;;28.77;42.46
51496;BME280;37572;52.094;4.870;2022-08-25T08:44:31;101556.34;;;28.52;43.44
51496;BME280;37572;52.094;4.870;2022-08-25T08:53:15;101553.41;;;28.71;44.00
51496;BME280;37572;52.094;4.870;2022-08-25T08:55:44;101556.25;;;29.11;43.31
51496;BME280;37572;52.094;4.870;2022-08-25T08:58:48;101562.22;;;29.58;44.35
51496;BME280;37572;52.094;4.870;2022-08-25T09:01:27;101566.78;;;30.12;42.51
51496;BME280;37572;52.094;4.870;2022-08-25T09:07:07;101568.06;;;29.97;41.25
51496;BME280;37572;52.094;4.870;2022-08-25T09:09:38;101559.25;;;29.95;41.92
51496;BME280;37572;52.094;4.870;2022-08-25T09:15:17;101559.72;;;29.97;42.21
51496;BME280;37572;52.094;4.870;2022-08-25T09:29:17;101565.16;;;30.81;41.09
51496;BME280;37572;52.094;4.870;2022-08-25T09:31:44;101559.13;;;30.70;40.91
51496;BME280;37572;52.094;4.870;2022-08-25T09:34:17;101563.38;;;30.67;40.58
51496;BME280;37572;52.094;4.870;2022-08-25T09:36:43;101558.13;;;30.66;41.70
51496;BME280;37572;52.094;4.870;2022-08-25T09:39:10;101559.94;;;30.79;41.82
51496;BME280;37572;52.094;4.870;2022-08-25T09:41:54;101551.72;;;30.83;41.07
51496;BME280;37572;52.094;4.870;2022-08-25T09:44:25;101547.00;;;30.83;41.32
51496;BME280;37572;52.094;4.870;2022-08-25T09:49:46;101548.47;;;30.98;42.16
51496;BME280;37572;52.094;4.870;2022-08-25T09:54:41;101534.00;;;31.61;39.94
51496;BME280;37572;52.094;4.870;2022-08-25T09:57:07;101526.44;;;31.70;39.82
51496;BME280;37572;52.094;4.870;2022-08-25T09:59:34;101536.53;;;31.75;37.95
51496;BME280;37572;52.094;4.870;2022-08-25T10:02:25;101537.22;;;31.72;36.93
51496;BME280;37572;52.094;4.870;2022-08-25T10:04:52;101528.88;;;31.72;37.03
51496;BME280;37572;52.094;4.870;2022-08-25T10:07:35;101531.56;;;31.80;37.72
51496;BME280;37572;52.094;4.870;2022-08-25T10:10:05;101529.75;;;31.85;37.44
51496;BME280;37572;52.094;4.870;2022-08-25T10:12:43;101533.25;;;31.73;39.03
51496;BME280;37572;52.094;4.870;2022-08-25T10:15:19;101528.75;;;31.59;38.21
51496;BME280;37572;52.094;4.870;2022-08-25T10:17:45;101526.34;;;31.49;38.23
51496;BME280;37572;52.094;4.870;2022-08-25T10:20:23;101523.91;;;31.47;40.25
51496;BME280;37572;52.094;4.870;2022-08-25T10:22:50;101514.25;;;31.45;40.85
51496;BME280;37572;52.094;4.870;2022-08-25T10:25:26;101521.25;;;31.51;40.28
51496;BME280;37572;52.094;4.870;2022-08-25T10:34:13;101503.25;;;31.48;41.03
51496;BME280;37572;52.094;4.870;2022-08-25T10:42:14;101494.69;;;31.24;39.08
51496;BME280;37572;52.094;4.870;2022-08-25T10:45:04;101480.84;;;31.45;40.13
51496;BME280;37572;52.094;4.870;2022-08-25T11:02:41;101469.50;;;32.22;37.73
51496;BME280;37572;52.094;4.870;2022-08-25T11:05:33;101471.41;;;32.30;38.12
51496;BME280;37572;52.094;4.870;2022-08-25T11:11:12;101466.38;;;32.57;39.79
51496;BME280;37572;52.094;4.870;2022-08-25T11:16:41;101465.94;;;32.34;36.61
51496;BME280;37572;52.094;4.870;2022-08-25T11:19:27;101463.94;;;32.56;36.90
51496;BME280;37572;52.094;4.870;2022-08-25T11:25:14;101466.94;;;32.84;35.98
51496;BME280;37572;52.094;4.870;2022-08-25T11:30:15;101469.22;;;32.82;35.87
51496;BME280;37572;52.094;4.870;2022-08-25T11:32:46;101474.97;;;33.10;36.38
51496;BME280;37572;52.094;4.870;2022-08-25T11:35:13;101464.84;;;33.05;36.73
51496;BME280;37572;52.094;4.870;2022-08-25T11:51:43;101443.22;;;33.52;34.39
51496;BME280;37572;52.094;4.870;2022-08-25T11:54:28;101440.97;;;33.70;35.04
51496;BME280;37572;52.094;4.870;2022-08-25T11:57:07;101441.56;;;34.04;35.70
51496;BME280;37572;52.094;4.870;2022-08-25T12:02:40;101436.19;;;34.39;33.31
51496;BME280;37572;52.094;4.870;2022-08-25T12:10:23;101448.66;;;35.22;33.21
51496;BME280;37572;52.094;4.870;2022-08-25T12:12:59;101448.53;;;35.50;31.70
51496;BME280;37572;52.094;4.870;2022-08-25T12:18:12;101427.81;;;35.54;29.57
51496;BME280;37572;52.094;4.870;2022-08-25T12:23:28;101434.38;;;35.43;28.74
51496;BME280;37572;52.094;4.870;2022-08-25T12:25:54;101421.75;;;35.68;27.62
51496;BME280;37572;52.094;4.870;2022-08-25T12:28:28;101430.59;;;36.10;27.50
51496;BME280;37572;52.094;4.870;2022-08-25T12:31:00;101420.59;;;36.28;27.41
51496;BME280;37572;52.094;4.870;2022-08-25T12:33:42;101429.09;;;36.16;27.19
51496;BME280;37572;52.094;4.870;2022-08-25T12:36:25;101415.59;;;36.21;26.84
51496;BME280;37572;52.094;4.870;2022-08-25T12:38:51;101411.06;;;36.33;25.22
51496;BME280;37572;52.094;4.870;2022-08-25T12:41:18;101409.97;;;36.64;27.87
51496;BME280;37572;52.094;4.870;2022-08-25T12:43:48;101415.63;;;36.68;25.89
51496;BME280;37572;52.094;4.870;2022-08-25T12:49:01;101419.44;;;38.20;27.60
51496;BME280;37572;52.094;4.870;2022-08-25T12:54:24;101417.09;;;39.22;26.71
51496;BME280;37572;52.094;4.870;2022-08-25T12:56:58;101412.56;;;39.81;24.79
51496;BME280;37572;52.094;4.870;2022-08-25T12:59:38;101407.34;;;39.90;23.59
51496;BME280;37572;52.094;4.870;2022-08-25T13:02:46;101413.47;;;40.13;23.33
51496;BME280;37572;52.094;4.870;2022-08-25T13:14:06;101407.53;;;38.82;23.37
51496;BME280;37572;52.094;4.870;2022-08-25T13:16:36;101406.06;;;38.99;26.15
51496;BME280;37572;52.094;4.870;2022-08-25T13:19:05;101403.66;;;39.05;23.82
51496;BME280;37572;52.094;4.870;2022-08-25T13:21:40;101405.31;;;37.52;24.09
51496;BME280;37572;52.094;4.870;2022-08-25T13:24:11;101396.28;;;36.82;25.44
51496;BME280;37572;52.094;4.870;2022-08-25T13:26:41;101386.75;;;36.21;28.42
51496;BME280;37572;52.094;4.870;2022-08-25T13:31:34;101376.38;;;35.43;30.50
51496;BME280;37572;52.094;4.870;2022-08-25T13:34:05;101377.78;;;35.17;30.06
51496;BME280;37572;52.094;4.870;2022-08-25T13:36:41;101373.69;;;34.79;27.48
51496;BME280;37572;52.094;4.870;2022-08-25T13:39:33;101373.06;;;34.54;29.54
51496;BME280;37572;52.094;4.870;2022-08-25T13:42:02;101374.50;;;34.64;32.20
51496;BME280;37572;52.094;4.870;2022-08-25T13:44:30;101369.91;;;34.40;29.77
51496;BME280;37572;52.094;4.870;2022-08-25T13:47:16;101366.06;;;34.16;29.69
51496;BME280;37572;52.094;4.870;2022-08-25T13:52:46;101370.97;;;33.91;30.68
51496;BME280;37572;52.094;4.870;2022-08-25T13:55:18;101372.09;;;33.74;29.77
51496;BME280;37572;52.094;4.870;2022-08-25T13:57:44;101370.72;;;33.55;28.32
51496;BME280;37572;52.094;4.870;2022-08-25T14:00:10;101364.63;;;33.66;30.80
51496;BME280;37572;52.094;4.870;2022-08-25T14:02:41;101372.78;;;33.71;32.65
51496;BME280;37572;52.094;4.870;2022-08-25T14:05:08;101368.13;;;33.75;33.09
51496;BME280;37572;52.094;4.870;2022-08-25T14:07:35;101358.13;;;33.74;33.22
51496;BME280;37572;52.094;4.870;2022-08-25T14:10:07;101357.53;;;33.68;35.95
51496;BME280;37572;52.094;4.870;2022-08-25T14:15:10;101356.94;;;33.47;33.89
51496;BME280;37572;52.094;4.870;2022-08-25T14:17:36;101351.13;;;33.39;32.15
51496;BME280;37572;52.094;4.870;2022-08-25T14:20:03;101352.19;;;33.35;32.78
51496;BME280;37572;52.094;4.870;2022-08-25T14:22:29;101348.59;;;33.34;35.61
51496;BME280;37572;52.094;4.870;2022-08-25T14:24:55;101343.94;;;33.14;31.36
51496;BME280;37572;52.094;4.870;2022-08-25T14:27:20;101353.22;;;33.18;35.54
51496;BME280;37572;52.094;4.870;2022-08-25T14:29:45;101345.69;;;33.06;40.27
51496;BME280;37572;52.094;4.870;2022-08-25T14:32:12;101350.34;;;32.77;38.26
51496;BME280;37572;52.094;4.870;2022-08-25T14:34:39;101347.00;;;32.84;41.06
51496;BME280;37572;52.094;4.870;2022-08-25T14:37:12;101343.53;;;32.75;40.69
51496;BME280;37572;52.094;4.870;2022-08-25T14:39:38;101341.16;;;32.64;41.23
51496;BME280;37572;52.094;4.870;2022-08-25T14:42:03;101342.78;;;32.53;41.24
51496;BME280;37572;52.094;4.870;2022-08-25T14:44:29;101338.94;;;32.45;41.02
51496;BME280;37572;52.094;4.870;2022-08-25T14:46:55;101340.53;;;32.34;40.55
51496;BME280;37572;52.094;4.870;2022-08-25T14:49:23;101344.25;;;32.26;41.21
51496;BME280;37572;52.094;4.870;2022-08-25T14:51:51;101344.00;;;32.18;41.43
51496;BME280;37572;52.094;4.870;2022-08-25T14:54:18;101340.28;;;32.14;43.09
51496;BME280;37572;52.094;4.870;2022-08-25T14:56:46;101341.50;;;32.05;41.54
51496;BME280;37572;52.094;4.870;2022-08-25T14:59:12;101335.81;;;32.01;44.30
51496;BME280;37572;52.094;4.870;2022-08-25T15:01:38;101342.41;;;31.96;43.22